createdAt,value
2023-03-15T00:01:21.236Z,1.50
2023-03-15T00:03:48.710Z,1.40
2023-03-15T00:06:16.873Z,1.40
2023-03-15T00:08:47.510Z,1.40
2023-03-15T00:11:18.312Z,1.40
2023-03-15T00:13:46.666Z,1.40
2023-03-15T00:16:17.639Z,1.30
2023-03-15T00:18:47.221Z,1.30
2023-03-15T00:21:14.904Z,1.30
2023-03-15T00:23:41.954Z,1.30
2023-03-15T00:26:08.908Z,1.30
2023-03-15T00:28:35.789Z,1.30
2023-03-15T00:31:07.247Z,1.30
2023-03-15T00:33:35.219Z,1.30
2023-03-15T00:36:07.792Z,1.30
2023-03-15T00:38:36.181Z,1.20
2023-03-15T00:41:11.543Z,1.20
2023-03-15T00:43:38.532Z,1.20
2023-03-15T00:46:06.270Z,1.20
2023-03-15T00:48:35.339Z,1.20
2023-03-15T00:51:11.018Z,1.20
2023-03-15T00:53:40.064Z,1.30
2023-03-15T00:56:15.550Z,1.40
2023-03-15T00:58:42.935Z,1.40
2023-03-15T01:01:12.983Z,1.50
2023-03-15T01:03:40.827Z,1.50
2023-03-15T01:06:28.742Z,1.60
2023-03-15T01:08:57.243Z,1.60
2023-03-15T01:11:26.981Z,1.60
2023-03-15T01:13:56.003Z,1.60
2023-03-15T01:16:23.196Z,1.70
2023-03-15T01:18:51.762Z,1.70
2023-03-15T01:21:19.141Z,1.70
2023-03-15T01:23:46.249Z,1.70
2023-03-15T01:26:15.384Z,1.70
2023-03-15T01:28:42.596Z,1.70
2023-03-15T01:31:27.545Z,1.80
2023-03-15T01:33:55.029Z,1.70
2023-03-15T01:36:21.915Z,1.70
2023-03-15T01:38:52.338Z,1.70
2023-03-15T01:41:21.010Z,1.80
2023-03-15T01:43:47.844Z,1.90
2023-03-15T01:46:27.877Z,2.00
2023-03-15T01:48:57.862Z,2.10
2023-03-15T01:51:33.784Z,2.10
2023-03-15T01:54:09.885Z,2.20
2023-03-15T01:56:41.063Z,2.20
2023-03-15T01:59:13.764Z,2.30
2023-03-15T02:01:45.833Z,2.40
2023-03-15T02:04:24.985Z,2.40
2023-03-15T02:06:59.219Z,2.40
2023-03-15T02:09:47.612Z,2.30
2023-03-15T02:12:14.421Z,2.30
2023-03-15T02:14:42.425Z,2.30
2023-03-15T02:17:09.341Z,2.30
2023-03-15T02:19:49.200Z,2.40
2023-03-15T02:23:06.559Z,2.40
2023-03-15T02:25:45.614Z,2.40
2023-03-15T02:28:15.505Z,2.40
2023-03-15T02:30:43.291Z,2.40
2023-03-15T02:33:32.138Z,2.30
2023-03-15T02:36:21.179Z,2.20
2023-03-15T02:38:49.163Z,2.30
2023-03-15T02:41:20.656Z,2.20
2023-03-15T02:43:52.223Z,2.20
2023-03-15T02:46:19.381Z,2.20
2023-03-15T02:48:47.879Z,2.20
2023-03-15T02:51:21.121Z,2.20
2023-03-15T02:53:48.672Z,2.20
2023-03-15T02:56:16.667Z,2.20
2023-03-15T02:58:47.190Z,2.20
2023-03-15T03:01:15.709Z,2.20
2023-03-15T03:03:43.964Z,2.20
2023-03-15T03:06:12.232Z,2.20
2023-03-15T03:08:39.163Z,2.20
2023-03-15T03:11:06.780Z,2.20
2023-03-15T03:13:33.700Z,2.30
2023-03-15T03:16:00.515Z,2.30
2023-03-15T03:18:31.991Z,2.30
2023-03-15T03:20:59.524Z,2.30
2023-03-15T03:23:27.017Z,2.30
2023-03-15T03:25:54.697Z,2.30
2023-03-15T03:28:24.118Z,2.20
2023-03-15T03:30:55.489Z,2.20
2023-03-15T03:33:23.206Z,2.10
2023-03-15T03:35:50.340Z,2.10
2023-03-15T03:38:17.188Z,2.10
2023-03-15T03:40:45.603Z,2.10
2023-03-15T03:43:12.401Z,2.20
2023-03-15T03:45:39.207Z,2.20
2023-03-15T03:48:06.190Z,2.20
2023-03-15T03:50:33.001Z,2.30
2023-03-15T03:52:59.913Z,2.40
2023-03-15T03:55:26.823Z,2.40
2023-03-15T03:57:53.713Z,2.50
2023-03-15T04:00:22.065Z,2.50
2023-03-15T04:02:49.276Z,2.60
2023-03-15T04:05:16.555Z,2.60
2023-03-15T04:07:43.352Z,2.60
2023-03-15T04:10:14.709Z,2.60
2023-03-15T04:12:45.191Z,2.60
2023-03-15T04:15:12.445Z,2.50
2023-03-15T04:17:39.535Z,2.50
2023-03-15T04:20:09.151Z,2.50
2023-03-15T04:22:35.998Z,2.50
2023-03-15T04:25:03.411Z,2.50
2023-03-15T04:27:30.818Z,2.60
2023-03-15T04:29:57.609Z,2.60
2023-03-15T04:32:24.733Z,2.60
2023-03-15T04:34:51.885Z,2.60
2023-03-15T04:37:19.066Z,2.50
2023-03-15T04:39:45.864Z,2.60
2023-03-15T04:42:12.695Z,2.60
2023-03-15T04:44:39.521Z,2.60
2023-03-15T04:47:06.585Z,2.60
2023-03-15T04:49:33.479Z,2.60
2023-03-15T04:52:00.539Z,2.60
2023-03-15T04:54:27.615Z,2.60
2023-03-15T04:56:54.416Z,2.70
2023-03-15T04:59:21.840Z,2.70
2023-03-15T05:01:49.096Z,2.60
2023-03-15T05:04:16.475Z,2.70
2023-03-15T05:06:43.327Z,2.70
2023-03-15T05:09:17.962Z,2.70
2023-03-15T05:11:46.487Z,2.70
2023-03-15T05:14:13.759Z,2.60
2023-03-15T05:16:40.706Z,2.60
2023-03-15T05:19:07.630Z,2.60
2023-03-15T05:21:34.584Z,2.60
2023-03-15T05:24:01.460Z,2.50
2023-03-15T05:26:28.296Z,2.50
2023-03-15T05:28:55.234Z,2.50
2023-03-15T05:31:22.191Z,2.50
2023-03-15T05:33:49.360Z,2.50
2023-03-15T05:36:17.556Z,2.50
2023-03-15T05:38:45.684Z,2.50
2023-03-15T05:41:17.907Z,2.60
2023-03-15T05:43:45.243Z,2.50
2023-03-15T05:46:12.116Z,2.60
2023-03-15T05:48:39.009Z,2.60
2023-03-15T05:51:06.111Z,2.60
2023-03-15T05:53:33.231Z,2.60
2023-03-15T05:56:00.211Z,2.60
2023-03-15T05:58:27.471Z,2.50
2023-03-15T06:00:54.475Z,2.50
2023-03-15T06:03:21.400Z,2.40
2023-03-15T06:05:48.453Z,2.40
2023-03-15T06:08:15.363Z,2.40
2023-03-15T06:10:42.206Z,2.30
2023-03-15T06:13:09.458Z,2.30
2023-03-15T06:15:36.427Z,2.30
2023-03-15T06:18:03.268Z,2.30
2023-03-15T06:20:31.192Z,2.30
2023-03-15T06:22:58.272Z,2.40
2023-03-15T06:25:25.190Z,2.50
2023-03-15T06:27:52.313Z,2.60
2023-03-15T06:30:20.574Z,2.70
2023-03-15T06:32:47.653Z,2.70
2023-03-15T06:35:14.529Z,2.80
2023-03-15T06:37:41.988Z,2.90
2023-03-15T06:40:12.985Z,2.90
2023-03-15T06:42:41.770Z,3.00
2023-03-15T06:45:09.951Z,3.00
2023-03-15T06:47:36.885Z,3.10
2023-03-15T06:50:04.235Z,3.10
2023-03-15T06:52:31.097Z,3.10
2023-03-15T06:54:58.066Z,3.10
2023-03-15T06:57:25.050Z,3.10
2023-03-15T06:59:54.076Z,3.10
2023-03-15T07:02:21.084Z,3.10
2023-03-15T07:04:48.191Z,3.10
2023-03-15T07:07:15.644Z,3.10
2023-03-15T07:09:42.623Z,3.10
2023-03-15T07:12:11.246Z,3.10
2023-03-15T07:14:38.050Z,3.20
2023-03-15T07:17:05.005Z,3.20
2023-03-15T07:19:31.818Z,3.20
2023-03-15T07:21:58.600Z,3.20
2023-03-15T07:24:25.484Z,3.30
2023-03-15T07:26:56.326Z,3.40
2023-03-15T07:29:24.249Z,3.40
2023-03-15T07:31:51.227Z,3.40
2023-03-15T07:34:19.322Z,3.50
2023-03-15T07:36:46.166Z,3.60
2023-03-15T07:39:13.854Z,3.80
2023-03-15T07:41:40.734Z,3.90
2023-03-15T07:44:07.720Z,4.00
2023-03-15T07:46:34.717Z,4.10
2023-03-15T07:49:01.688Z,4.00
2023-03-15T07:51:28.597Z,4.00
2023-03-15T07:53:55.459Z,4.00
2023-03-15T07:56:22.320Z,4.20
2023-03-15T07:58:49.143Z,4.30
2023-03-15T08:01:15.960Z,4.40
2023-03-15T08:03:42.743Z,4.30
2023-03-15T08:06:09.646Z,4.30
2023-03-15T08:08:36.448Z,4.40
2023-03-15T08:11:05.558Z,4.50
2023-03-15T08:13:32.645Z,4.70
2023-03-15T08:15:59.516Z,4.80
2023-03-15T08:18:28.972Z,4.80
2023-03-15T08:20:56.240Z,4.80
2023-03-15T08:23:23.519Z,4.80
2023-03-15T08:25:50.465Z,4.60
2023-03-15T08:28:17.778Z,4.50
2023-03-15T08:30:44.602Z,4.50
2023-03-15T08:33:12.562Z,4.60
2023-03-15T08:35:39.471Z,4.70
2023-03-15T08:38:06.272Z,4.80
2023-03-15T08:40:33.080Z,4.90
2023-03-15T08:43:00.086Z,5.10
2023-03-15T08:45:27.896Z,5.20
2023-03-15T08:47:56.957Z,5.20
2023-03-15T08:50:24.323Z,5.10
2023-03-15T08:52:51.169Z,5.20
2023-03-15T08:55:18.084Z,5.20
2023-03-15T08:57:45.023Z,5.10
2023-03-15T09:00:23.287Z,5.10
2023-03-15T09:02:52.129Z,5.30
2023-03-15T09:05:20.174Z,5.40
2023-03-15T09:07:48.087Z,5.40
2023-03-15T09:10:16.839Z,5.40
2023-03-15T09:12:46.066Z,5.30
2023-03-15T09:15:13.500Z,5.40
2023-03-15T09:17:40.937Z,5.40
2023-03-15T09:20:22.392Z,5.40
2023-03-15T09:22:55.113Z,5.60
2023-03-15T09:25:23.058Z,5.80
2023-03-15T09:27:50.734Z,5.70
2023-03-15T09:30:17.840Z,5.60
2023-03-15T09:32:45.912Z,5.60
2023-03-15T09:35:18.965Z,5.60
2023-03-15T09:37:46.480Z,5.30
2023-03-15T09:40:22.182Z,5.10
2023-03-15T09:43:07.462Z,5.10
2023-03-15T09:46:08.100Z,5.00
2023-03-15T09:48:46.842Z,5.10
2023-03-15T09:51:28.469Z,5.40
2023-03-15T09:54:00.866Z,5.70
2023-03-15T09:56:35.754Z,5.80
2023-03-15T09:59:03.809Z,5.80
2023-03-15T10:01:41.994Z,5.80
2023-03-15T10:04:15.700Z,5.90
2023-03-15T10:06:49.796Z,5.80
2023-03-15T10:09:22.135Z,5.60
2023-03-15T10:12:04.468Z,5.50
2023-03-15T10:14:56.201Z,5.40
2023-03-15T10:17:42.414Z,5.60
2023-03-15T10:20:19.030Z,5.80
2023-03-15T10:23:05.725Z,5.70
2023-03-15T10:25:33.733Z,5.80
2023-03-15T10:28:18.899Z,5.80
2023-03-15T10:30:51.563Z,5.90
2023-03-15T10:33:29.410Z,5.90
2023-03-15T10:36:09.667Z,5.80
2023-03-15T10:38:38.409Z,5.80
2023-03-15T10:41:06.868Z,5.80
2023-03-15T10:43:37.073Z,5.90
2023-03-15T10:46:08.528Z,6.00
2023-03-15T10:48:38.232Z,6.20
2023-03-15T10:51:06.567Z,6.40
2023-03-15T10:53:33.735Z,6.60
2023-03-15T10:56:13.855Z,6.70
2023-03-15T10:58:49.311Z,6.70
2023-03-15T11:01:29.234Z,6.70
2023-03-15T11:04:16.108Z,6.80
2023-03-15T11:06:59.293Z,6.90
2023-03-15T11:09:27.466Z,6.90
2023-03-15T11:11:57.063Z,6.90
2023-03-15T11:14:24.322Z,6.90
2023-03-15T11:16:57.008Z,6.80
2023-03-15T11:19:28.106Z,6.80
2023-03-15T11:21:56.190Z,6.80
2023-03-15T11:24:29.829Z,6.80
2023-03-15T11:27:02.127Z,6.90
2023-03-15T11:29:31.617Z,6.90
2023-03-15T11:32:10.855Z,7.10
2023-03-15T11:35:02.365Z,7.30
2023-03-15T11:37:51.630Z,7.60
2023-03-15T11:40:32.779Z,7.70
2023-03-15T11:43:18.409Z,7.70
2023-03-15T11:45:51.213Z,8.00
2023-03-15T11:48:36.516Z,8.00
2023-03-15T11:51:03.437Z,7.90
2023-03-15T11:53:38.137Z,7.70
2023-03-15T11:56:25.481Z,7.40
2023-03-15T11:59:13.103Z,7.30
2023-03-15T12:01:50.570Z,7.30
2023-03-15T12:04:32.511Z,7.20
2023-03-15T12:07:31.389Z,6.90
2023-03-15T12:10:20.553Z,6.70
2023-03-15T12:12:56.606Z,6.70
2023-03-15T12:15:23.424Z,6.50
2023-03-15T12:17:54.188Z,6.60
2023-03-15T12:20:42.942Z,6.60
2023-03-15T12:23:19.068Z,6.40
2023-03-15T12:25:57.218Z,6.10
2023-03-15T12:28:52.451Z,6.30
2023-03-15T12:31:20.174Z,6.40
2023-03-15T12:33:52.942Z,6.60
2023-03-15T12:36:38.163Z,6.40
2023-03-15T12:39:14.200Z,6.00
2023-03-15T12:41:46.630Z,5.60
2023-03-15T12:44:31.929Z,5.20
2023-03-15T12:47:03.637Z,4.90
2023-03-15T12:49:32.297Z,4.90
2023-03-15T12:52:10.967Z,4.60
2023-03-15T12:54:55.092Z,4.60
2023-03-15T12:57:29.866Z,4.80
2023-03-15T13:00:15.785Z,5.00
2023-03-15T13:02:49.829Z,5.00
2023-03-15T13:05:28.963Z,5.10
2023-03-15T13:08:16.467Z,5.20
2023-03-15T13:11:07.521Z,5.30
2023-03-15T13:14:00.999Z,5.50
2023-03-15T13:16:36.785Z,5.60
2023-03-15T13:19:23.733Z,5.60
2023-03-15T13:22:06.091Z,5.80
2023-03-15T13:24:35.639Z,5.90
2023-03-15T13:27:08.867Z,5.90
2023-03-15T13:29:36.687Z,6.00
2023-03-15T13:32:24.367Z,6.00
2023-03-15T13:34:51.259Z,6.20
2023-03-15T13:37:22.125Z,6.30
2023-03-15T13:40:08.760Z,6.20
2023-03-15T13:42:40.075Z,6.20
2023-03-15T13:45:07.124Z,6.20
2023-03-15T13:47:37.184Z,6.30
2023-03-15T13:50:05.998Z,6.20
2023-03-15T13:52:41.272Z,6.10
2023-03-15T13:55:10.107Z,6.10
2023-03-15T13:57:37.120Z,6.10
2023-03-15T14:00:13.492Z,6.20
2023-03-15T14:02:44.494Z,6.30
2023-03-15T14:05:18.877Z,6.30
2023-03-15T14:07:48.837Z,6.40
2023-03-15T14:10:31.944Z,6.30
2023-03-15T14:13:17.778Z,6.30
2023-03-15T14:15:47.091Z,6.30
2023-03-15T14:18:32.451Z,6.20
2023-03-15T14:21:01.586Z,6.30
2023-03-15T14:23:29.745Z,6.30
2023-03-15T14:26:18.591Z,6.20
2023-03-15T14:29:10.487Z,6.20
2023-03-15T14:31:46.788Z,6.20
2023-03-15T14:34:35.468Z,6.30
2023-03-15T14:37:09.757Z,6.40
2023-03-15T14:39:42.815Z,6.40
2023-03-15T14:42:12.101Z,6.30
2023-03-15T14:44:39.088Z,6.30
2023-03-15T14:47:17.030Z,6.30
2023-03-15T14:49:43.951Z,6.30
2023-03-15T14:52:14.964Z,6.40
2023-03-15T14:54:49.711Z,6.30
2023-03-15T14:57:16.560Z,6.40
2023-03-15T14:59:43.910Z,6.30
2023-03-15T15:02:18.026Z,6.10
2023-03-15T15:04:48.107Z,6.10
2023-03-15T15:07:17.386Z,6.20
2023-03-15T15:09:48.731Z,6.30
2023-03-15T15:12:15.838Z,6.30
2023-03-15T15:14:45.322Z,6.30
2023-03-15T15:17:12.196Z,6.30
2023-03-15T15:19:39.047Z,6.30
2023-03-15T15:22:05.853Z,6.30
2023-03-15T15:24:32.676Z,6.30
2023-03-15T15:26:59.564Z,6.30
2023-03-15T15:29:26.596Z,6.20
2023-03-15T15:31:53.479Z,6.30
2023-03-15T15:34:20.298Z,6.20
2023-03-15T15:36:47.363Z,6.10
2023-03-15T15:39:27.532Z,6.10
2023-03-15T15:41:54.548Z,6.10
2023-03-15T15:44:23.933Z,6.10
2023-03-15T15:46:50.845Z,6.10
2023-03-15T15:49:19.437Z,6.10
2023-03-15T15:51:49.648Z,6.10
2023-03-15T15:54:20.210Z,6.10
2023-03-15T15:56:54.224Z,6.20
2023-03-15T15:59:21.140Z,6.20
2023-03-15T16:02:00.695Z,6.20
2023-03-15T16:04:28.655Z,6.10
2023-03-15T16:07:04.250Z,6.10
2023-03-15T16:09:36.149Z,6.10
2023-03-15T16:12:10.632Z,6.20
2023-03-15T16:14:37.469Z,6.20
2023-03-15T16:17:17.918Z,6.20
2023-03-15T16:19:45.188Z,6.10
2023-03-15T16:22:12.082Z,6.10
2023-03-15T16:24:44.111Z,6.00
2023-03-15T16:27:23.306Z,6.00
2023-03-15T16:29:52.943Z,6.00
2023-03-15T16:32:32.974Z,6.00
2023-03-15T16:35:05.493Z,5.90
2023-03-15T16:37:32.686Z,5.90
2023-03-15T16:40:01.709Z,5.90
2023-03-15T16:42:28.713Z,5.90
2023-03-15T16:44:55.562Z,5.80
2023-03-15T16:47:22.384Z,5.80
2023-03-15T16:49:49.462Z,5.80
2023-03-15T16:52:17.269Z,5.70
2023-03-15T16:54:47.559Z,5.60
2023-03-15T16:57:22.788Z,5.50
2023-03-15T16:59:50.466Z,5.50
2023-03-15T17:02:23.047Z,5.40
2023-03-15T17:04:50.093Z,5.30
2023-03-15T17:07:17.616Z,5.30
2023-03-15T17:09:47.426Z,5.20
2023-03-15T17:12:23.511Z,5.10
2023-03-15T17:14:50.795Z,5.10
2023-03-15T17:17:17.745Z,5.00
2023-03-15T17:19:44.699Z,4.90
2023-03-15T17:22:11.986Z,4.70
2023-03-15T17:24:38.870Z,4.60
2023-03-15T17:27:05.981Z,4.50
2023-03-15T17:29:33.286Z,4.30
2023-03-15T17:32:00.370Z,4.20
2023-03-15T17:34:27.260Z,4.00
2023-03-15T17:36:54.218Z,3.90
2023-03-15T17:39:21.029Z,3.80
2023-03-15T17:41:48.310Z,3.60
2023-03-15T17:44:15.209Z,3.50
2023-03-15T17:46:43.477Z,3.40
2023-03-15T17:49:12.990Z,3.30
2023-03-15T17:51:44.812Z,3.20
2023-03-15T17:54:18.347Z,3.10
2023-03-15T17:56:47.102Z,3.00
2023-03-15T17:59:14.506Z,3.00
2023-03-15T18:01:45.693Z,2.90
2023-03-15T18:04:14.919Z,2.80
2023-03-15T18:06:42.880Z,2.70
2023-03-15T18:09:11.619Z,2.70
2023-03-15T18:11:42.632Z,2.60
2023-03-15T18:14:15.331Z,2.60
2023-03-15T18:16:43.415Z,2.60
2023-03-15T18:19:10.664Z,2.50
2023-03-15T18:21:37.674Z,2.50
2023-03-15T18:24:04.700Z,2.40
2023-03-15T18:26:31.523Z,2.40
2023-03-15T18:28:58.432Z,2.40
2023-03-15T18:31:26.352Z,2.40
2023-03-15T18:33:54.328Z,2.30
2023-03-15T18:36:21.186Z,2.20
2023-03-15T18:38:48.681Z,2.20
2023-03-15T18:41:21.768Z,2.20
2023-03-15T18:43:52.395Z,2.10
2023-03-15T18:46:24.665Z,2.00
2023-03-15T18:48:55.846Z,2.00
2023-03-15T18:51:28.284Z,1.90
2023-03-15T18:53:55.637Z,1.90
2023-03-15T18:56:25.657Z,1.80
2023-03-15T18:58:53.685Z,1.80
2023-03-15T19:01:24.953Z,1.80
2023-03-15T19:03:53.547Z,1.80
2023-03-15T19:06:21.440Z,1.80
2023-03-15T19:08:53.300Z,1.70
2023-03-15T19:11:21.456Z,1.70
2023-03-15T19:13:51.391Z,1.80
2023-03-15T19:16:19.679Z,1.80
2023-03-15T19:18:47.492Z,1.70
2023-03-15T19:21:14.377Z,1.70
2023-03-15T19:23:41.266Z,1.70
2023-03-15T19:26:09.012Z,1.70
2023-03-15T19:28:36.842Z,1.70
2023-03-15T19:31:03.910Z,1.70
2023-03-15T19:33:30.852Z,1.70
2023-03-15T19:35:57.734Z,1.60
2023-03-15T19:38:24.610Z,1.60
2023-03-15T19:40:55.197Z,1.60
2023-03-15T19:43:23.530Z,1.50
2023-03-15T19:45:50.939Z,1.50
2023-03-15T19:48:17.922Z,1.40
2023-03-15T19:50:44.931Z,1.40
2023-03-15T19:53:12.278Z,1.30
2023-03-15T19:55:39.118Z,1.20
2023-03-15T19:58:05.962Z,1.20
2023-03-15T20:00:32.903Z,1.10
2023-03-15T20:03:00.008Z,1.10
2023-03-15T20:05:27.164Z,1.00
2023-03-15T20:07:54.386Z,1.00
2023-03-15T20:10:21.730Z,0.90
2023-03-15T20:12:48.840Z,0.90
2023-03-15T20:15:18.580Z,0.90
2023-03-15T20:17:46.115Z,1.00
2023-03-15T20:20:14.857Z,1.00
2023-03-15T20:22:43.678Z,1.00
2023-03-15T20:25:13.019Z,1.00
2023-03-15T20:27:40.537Z,1.00
2023-03-15T20:30:09.892Z,1.00
2023-03-15T20:32:36.758Z,1.00
2023-03-15T20:35:08.980Z,1.00
2023-03-15T20:37:39.837Z,1.00
2023-03-15T20:40:09.065Z,1.00
2023-03-15T20:42:35.936Z,1.00
2023-03-15T20:45:04.376Z,0.90
2023-03-15T20:47:31.428Z,0.90
2023-03-15T20:49:58.292Z,0.90
2023-03-15T20:52:25.540Z,0.80
2023-03-15T20:54:52.536Z,0.80
2023-03-15T20:57:19.468Z,0.80
2023-03-15T20:59:46.791Z,0.70
2023-03-15T21:02:13.795Z,0.70
2023-03-15T21:04:40.893Z,0.70
2023-03-15T21:07:08.014Z,0.70
2023-03-15T21:09:35.419Z,0.70
2023-03-15T21:12:02.907Z,0.70
2023-03-15T21:14:29.812Z,0.70
2023-03-15T21:16:56.873Z,0.60
2023-03-15T21:19:24.855Z,0.60
2023-03-15T21:21:51.728Z,0.50
2023-03-15T21:24:18.591Z,0.50
2023-03-15T21:26:48.601Z,0.40
2023-03-15T21:29:15.400Z,0.40
2023-03-15T21:31:42.708Z,0.40
2023-03-15T21:34:09.650Z,0.40
2023-03-15T21:36:36.574Z,0.30
2023-03-15T21:39:05.951Z,0.30
2023-03-15T21:41:34.164Z,0.30
2023-03-15T21:44:01.112Z,0.30
2023-03-15T21:46:28.115Z,0.30
2023-03-15T21:48:55.898Z,0.30
2023-03-15T21:51:22.755Z,0.30
2023-03-15T21:53:50.381Z,0.20
2023-03-15T21:56:17.363Z,0.30
2023-03-15T21:58:44.370Z,0.20
2023-03-15T22:01:13.924Z,0.20
2023-03-15T22:03:42.534Z,0.10
2023-03-15T22:06:09.884Z,0.10
2023-03-15T22:08:36.873Z,0.10
2023-03-15T22:11:04.658Z,0.00
2023-03-15T22:13:31.681Z,0.10
2023-03-15T22:15:59.101Z,0.00
2023-03-15T22:18:28.799Z,0.00
2023-03-15T22:20:56.767Z,0.00
2023-03-15T22:23:23.844Z,0.00
2023-03-15T22:25:53.518Z,0.00
2023-03-15T22:28:21.245Z,0.00
2023-03-15T22:30:49.691Z,0.00
2023-03-15T22:33:18.158Z,0.00
2023-03-15T22:35:45.209Z,0.10
2023-03-15T22:38:15.796Z,0.00
2023-03-15T22:40:43.044Z,0.00
2023-03-15T22:43:09.981Z,0.00
2023-03-15T22:45:37.048Z,0.00
2023-03-15T22:48:04.011Z,-0.10
2023-03-15T22:50:31.060Z,-0.10
2023-03-15T22:52:58.081Z,-0.10
2023-03-15T22:55:25.373Z,-0.10
2023-03-15T22:57:53.940Z,-0.10
2023-03-15T23:00:22.326Z,-0.10
2023-03-15T23:02:49.447Z,-0.20
2023-03-15T23:05:16.526Z,-0.20
2023-03-15T23:07:43.731Z,-0.20
2023-03-15T23:10:11.423Z,-0.20
2023-03-15T23:12:38.451Z,-0.30
2023-03-15T23:15:05.890Z,-0.30
2023-03-15T23:17:32.952Z,-0.30
2023-03-15T23:20:00.153Z,-0.30
2023-03-15T23:22:27.220Z,-0.30
2023-03-15T23:24:57.953Z,-0.40
2023-03-15T23:27:26.096Z,-0.40
2023-03-15T23:29:54.894Z,-0.50
2023-03-15T23:32:26.272Z,-0.50
2023-03-15T23:34:53.792Z,-0.50
2023-03-15T23:37:21.061Z,-0.50
2023-03-15T23:39:47.984Z,-0.50
2023-03-15T23:42:14.881Z,-0.50
2023-03-15T23:44:41.761Z,-0.50
2023-03-15T23:47:08.816Z,-0.50
2023-03-15T23:49:35.708Z,-0.60
2023-03-15T23:52:05.699Z,-0.60
2023-03-15T23:54:39.645Z,-0.60
2023-03-15T23:57:08.251Z,-0.60
2023-03-15T23:59:36.266Z,-0.60
